Time;durP1;ratioP1;P1;durP2;ratioP2;P2;SDS_P1;SDS_P2;PMS_P1;PMS_P2;Temp;Humidity;BMP_temperature;BMP_pressure;BME280_temperature;BME280_humidity;BME280_pressure;Samples;Min_cycle;Max_cycle;Signal;HPM_P1;HPM_P2
2021/06/26 00:01:49;;;;;;;11.87;8.60;;;18.00;99.90;;;;;;5101332;28;20170;-85
2021/06/26 00:04:16;;;;;;;11.13;9.13;;;17.90;99.90;;;;;;5102153;28;20397;-83
2021/06/26 00:06:42;;;;;;;11.50;9.50;;;18.10;99.90;;;;;;5116883;28;20206;-84
2021/06/26 00:09:08;;;;;;;9.47;7.97;;;18.20;99.90;;;;;;5100771;28;20514;-84
2021/06/26 00:11:33;;;;;;;9.03;8.10;;;18.10;99.90;;;;;;5099906;28;20228;-85
2021/06/26 00:14:00;;;;;;;11.47;7.57;;;17.80;99.90;;;;;;5099811;28;20451;-84
2021/06/26 00:16:25;;;;;;;12.67;8.60;;;17.50;99.90;;;;;;5099999;28;20154;-85
2021/06/26 00:18:51;;;;;;;12.30;8.80;;;17.30;99.90;;;;;;5100579;28;20479;-84
2021/06/26 00:21:17;;;;;;;13.27;9.90;;;17.30;99.90;;;;;;5099842;28;20397;-85
2021/06/26 00:23:43;;;;;;;9.83;8.93;;;17.20;99.90;;;;;;5100180;28;20163;-84
2021/06/26 00:26:10;;;;;;;10.63;9.53;;;17.00;99.90;;;;;;5099974;28;20392;-85
2021/06/26 00:28:36;;;;;;;11.33;9.83;;;17.00;99.90;;;;;;5099859;28;20190;-85
2021/06/26 00:31:02;;;;;;;10.97;8.30;;;17.10;99.90;;;;;;5099835;28;20428;-85
2021/06/26 00:33:28;;;;;;;13.17;10.77;;;17.10;99.90;;;;;;5100427;28;20159;-85
2021/06/26 00:35:54;;;;;;;13.23;9.40;;;17.30;99.90;;;;;;5098144;28;20392;-85
2021/06/26 00:38:19;;;;;;;12.77;8.90;;;17.60;99.90;;;;;;5099314;28;20192;-85
2021/06/26 00:40:45;;;;;;;9.93;8.90;;;17.80;99.90;;;;;;5099312;28;20312;-85
2021/06/26 00:43:11;;;;;;;12.40;9.70;;;17.90;99.90;;;;;;5102381;28;20247;-84
2021/06/26 00:45:37;;;;;;;13.27;10.40;;;17.90;99.90;;;;;;5104820;28;20158;-85
2021/06/26 00:48:03;;;;;;;11.03;9.27;;;17.70;99.90;;;;;;5106713;28;20204;-84
2021/06/26 00:50:31;;;;;;;13.23;9.43;;;17.60;99.90;;;;;;5107426;28;20151;-85
2021/06/26 00:52:57;;;;;;;10.50;8.60;;;17.40;99.90;;;;;;5102930;28;20717;-85
2021/06/26 00:55:23;;;;;;;13.13;10.13;;;17.40;99.90;;;;;;5100730;28;20392;-85
2021/06/26 00:57:54;;;;;;;10.77;8.40;;;17.60;99.90;;;;;;5105162;28;20194;-84
2021/06/26 01:00:21;;;;;;;7.90;7.10;;;17.20;99.90;;;;;;5106170;28;20417;-85
2021/06/26 01:02:47;;;;;;;9.80;8.80;;;17.00;99.90;;;;;;5105120;28;20484;-85
2021/06/26 01:05:13;;;;;;;8.83;7.80;;;16.80;99.90;;;;;;5115459;28;20473;-85
2021/06/26 01:07:39;;;;;;;11.57;7.23;;;16.90;99.90;;;;;;5097605;28;20193;-85
2021/06/26 01:10:06;;;;;;;15.73;6.90;;;16.90;99.90;;;;;;5098992;28;20163;-85
2021/06/26 01:12:33;;;;;;;7.10;6.50;;;16.80;99.90;;;;;;5099552;28;20758;-85
2021/06/26 01:14:58;;;;;;;8.73;7.80;;;16.60;99.90;;;;;;5115017;28;20420;-84
2021/06/26 01:17:24;;;;;;;13.10;9.20;;;16.40;99.90;;;;;;5099396;28;20393;-85
2021/06/26 01:19:50;;;;;;;12.23;9.23;;;16.20;99.90;;;;;;5115170;28;20173;-85
2021/06/26 01:22:22;;;;;;;8.73;7.53;;;16.30;99.90;;;;;;5114397;28;20159;-84
2021/06/26 01:24:49;;;;;;;10.20;9.13;;;16.20;99.90;;;;;;5114768;28;20408;-85
2021/06/26 01:27:15;;;;;;;16.30;8.53;;;16.10;99.90;;;;;;5098984;28;20396;-84
2021/06/26 01:29:48;;;;;;;15.53;9.13;;;15.90;99.90;;;;;;5098400;28;20472;-84
2021/06/26 01:32:15;;;;;;;10.47;8.67;;;15.90;99.90;;;;;;5099405;28;20159;-84
2021/06/26 01:34:40;;;;;;;13.67;9.40;;;16.00;99.90;;;;;;5098386;28;20463;-83
2021/06/26 01:37:10;;;;;;;14.23;8.70;;;16.10;99.90;;;;;;5114124;28;20384;-83
2021/06/26 01:39:36;;;;;;;14.80;9.80;;;16.00;99.90;;;;;;5097444;28;20409;-85
2021/06/26 01:42:02;;;;;;;12.63;9.43;;;15.90;99.90;;;;;;5105880;28;20484;-85
2021/06/26 01:44:27;;;;;;;12.90;9.87;;;15.90;99.90;;;;;;5103671;28;20514;-84
2021/06/26 01:46:53;;;;;;;11.90;10.70;;;15.90;99.90;;;;;;5119249;28;20423;-84
2021/06/26 01:49:19;;;;;;;14.77;10.90;;;15.70;99.90;;;;;;5098806;28;20189;-84
2021/06/26 01:51:45;;;;;;;13.30;10.77;;;15.80;99.90;;;;;;5080099;28;20610;-84
2021/06/26 01:54:12;;;;;;;19.97;11.83;;;16.00;99.90;;;;;;5097821;28;20158;-85
2021/06/26 01:56:39;;;;;;;19.30;11.33;;;15.90;99.90;;;;;;5098034;28;20155;-84
2021/06/26 01:59:05;;;;;;;15.07;11.13;;;16.00;99.90;;;;;;5097786;28;20906;-84
2021/06/26 02:01:33;;;;;;;18.03;12.43;;;15.90;99.90;;;;;;5098342;28;20389;-84
2021/06/26 02:03:59;;;;;;;21.97;10.90;;;16.10;99.90;;;;;;5100474;28;20385;-85
2021/06/26 02:06:25;;;;;;;24.00;14.30;;;16.10;99.90;;;;;;5097261;28;20432;-84
2021/06/26 02:08:50;;;;;;;16.87;12.63;;;16.10;99.90;;;;;;5098377;28;20440;-84
2021/06/26 02:11:16;;;;;;;15.63;12.33;;;16.20;99.90;;;;;;5108463;28;20165;-82
2021/06/26 02:13:43;;;;;;;18.07;13.13;;;16.30;99.90;;;;;;5093197;28;20205;-83
2021/06/26 02:16:09;;;;;;;18.80;13.97;;;16.20;99.90;;;;;;5102282;28;20154;-85
2021/06/26 02:18:34;;;;;;;25.00;13.30;;;16.20;99.90;;;;;;5084502;28;20935;-85
2021/06/26 02:21:00;;;;;;;17.17;11.53;;;16.10;99.90;;;;;;5101838;28;20393;-85
2021/06/26 02:23:27;;;;;;;15.27;11.27;;;16.00;99.90;;;;;;5101253;28;20254;-85
2021/06/26 02:25:54;;;;;;;16.17;9.43;;;15.90;99.90;;;;;;5102004;28;20392;-85
2021/06/26 02:28:19;;;;;;;12.73;9.20;;;16.00;99.90;;;;;;5101890;28;20480;-85
2021/06/26 02:30:45;;;;;;;9.87;8.50;;;16.00;99.90;;;;;;5101946;28;20419;-85
2021/06/26 02:33:11;;;;;;;12.90;9.27;;;16.20;99.90;;;;;;5102327;28;20167;-85
2021/06/26 02:35:37;;;;;;;11.90;9.67;;;16.00;99.90;;;;;;5102390;28;20174;-85
2021/06/26 02:38:03;;;;;;;11.40;9.93;;;16.00;99.90;;;;;;5102135;28;20216;-85
2021/06/26 02:40:29;;;;;;;12.53;9.10;;;15.90;99.90;;;;;;5101000;28;20159;-84
2021/06/26 02:42:54;;;;;;;10.63;8.83;;;15.70;99.90;;;;;;5101495;28;20170;-84
2021/06/26 02:45:20;;;;;;;11.63;9.10;;;15.90;99.90;;;;;;5101684;28;20615;-84
2021/06/26 02:47:46;;;;;;;14.43;11.17;;;16.00;99.90;;;;;;5101350;28;20193;-84
2021/06/26 02:50:12;;;;;;;11.20;10.00;;;16.00;99.90;;;;;;5101458;28;20162;-84
2021/06/26 02:52:38;;;;;;;11.33;10.07;;;15.80;99.90;;;;;;5101288;28;20507;-85
2021/06/26 02:55:05;;;;;;;17.60;10.57;;;15.90;99.90;;;;;;5099819;28;20395;-84
2021/06/26 02:57:31;;;;;;;14.03;10.47;;;16.00;99.90;;;;;;5099814;28;20201;-84
2021/06/26 02:59:57;;;;;;;18.63;11.37;;;16.00;99.90;;;;;;5100918;28;20397;-84
2021/06/26 03:02:25;;;;;;;14.63;11.00;;;15.90;99.90;;;;;;5100632;28;20174;-84
2021/06/26 03:04:51;;;;;;;19.47;11.83;;;15.70;99.90;;;;;;5100423;28;20178;-84
2021/06/26 03:07:17;;;;;;;21.57;13.33;;;15.90;99.90;;;;;;5101007;28;20396;-83
2021/06/26 03:09:43;;;;;;;29.40;16.90;;;16.20;99.90;;;;;;5101198;28;20197;-83
2021/06/26 03:12:09;;;;;;;46.83;18.60;;;16.30;99.90;;;;;;5101086;28;20192;-84
2021/06/26 03:14:35;;;;;;;31.27;18.60;;;16.10;99.90;;;;;;5101087;28;20177;-84
2021/06/26 03:17:01;;;;;;;27.83;16.77;;;16.10;99.90;;;;;;5100911;28;20393;-84
2021/06/26 03:19:26;;;;;;;29.43;18.90;;;16.40;99.90;;;;;;5101022;28;20231;-84
2021/06/26 03:21:52;;;;;;;26.60;19.10;;;16.60;99.90;;;;;;5099725;28;20159;-84
2021/06/26 03:24:18;;;;;;;20.97;15.40;;;16.70;99.90;;;;;;5100737;28;20227;-84
2021/06/26 03:26:44;;;;;;;30.03;17.37;;;16.80;99.90;;;;;;5100377;28;20217;-83
2021/06/26 03:29:10;;;;;;;30.13;19.37;;;17.00;99.90;;;;;;5100541;28;20935;-83
2021/06/26 03:31:36;;;;;;;30.40;16.77;;;17.00;99.90;;;;;;5101161;28;20471;-83
2021/06/26 03:34:02;;;;;;;29.57;17.30;;;17.20;99.90;;;;;;5100688;28;20155;-83
2021/06/26 03:36:28;;;;;;;21.53;17.83;;;17.20;99.90;;;;;;5099453;28;20242;-84
2021/06/26 03:38:54;;;;;;;25.40;15.33;;;17.30;99.90;;;;;;5098791;28;20211;-84
2021/06/26 03:41:27;;;;;;;25.63;16.50;;;17.30;99.90;;;;;;5099820;28;20253;-84
2021/06/26 03:43:55;;;;;;;31.47;17.70;;;17.30;99.90;;;;;;5100113;28;20178;-84
2021/06/26 03:46:21;;;;;;;41.10;16.53;;;17.20;99.90;;;;;;5100779;28;20407;-84
2021/06/26 03:48:47;;;;;;;23.67;16.83;;;17.30;99.90;;;;;;5100368;28;20440;-84
2021/06/26 03:51:13;;;;;;;26.10;16.00;;;17.40;99.90;;;;;;5100443;28;20427;-84
2021/06/26 03:53:39;;;;;;;23.67;16.60;;;17.40;99.90;;;;;;5099351;28;20159;-84
2021/06/26 03:56:05;;;;;;;22.83;16.70;;;17.40;99.90;;;;;;5101502;28;20170;-84
2021/06/26 03:58:30;;;;;;;23.40;14.73;;;17.40;99.90;;;;;;5102697;28;20253;-84
2021/06/26 04:00:56;;;;;;;22.23;14.80;;;17.30;99.90;;;;;;5102183;28;20474;-84
2021/06/26 04:03:23;;;;;;;21.47;15.60;;;17.10;99.90;;;;;;5101315;28;20166;-84
2021/06/26 04:05:49;;;;;;;24.57;16.60;;;17.00;99.90;;;;;;5101018;28;20163;-84
2021/06/26 04:08:15;;;;;;;23.20;16.13;;;16.70;99.90;;;;;;5101708;28;20452;-83
2021/06/26 04:10:41;;;;;;;24.37;16.07;;;16.70;99.90;;;;;;5101683;28;20458;-84
2021/06/26 04:13:07;;;;;;;24.30;17.50;;;16.60;99.90;;;;;;5100007;28;20170;-84
2021/06/26 04:15:34;;;;;;;24.77;16.00;;;16.90;99.90;;;;;;5101022;28;20674;-84
2021/06/26 04:18:00;;;;;;;29.23;19.23;;;16.80;99.90;;;;;;5102017;28;20226;-84
2021/06/26 04:20:26;;;;;;;28.63;18.13;;;16.90;99.90;;;;;;5099794;28;20460;-84
2021/06/26 04:22:53;;;;;;;23.53;15.87;;;17.20;99.90;;;;;;5100136;28;20446;-84
2021/06/26 04:25:19;;;;;;;26.83;17.20;;;17.20;99.90;;;;;;5101154;28;20431;-84
2021/06/26 04:27:45;;;;;;;25.10;16.80;;;17.00;99.90;;;;;;5101725;28;20396;-84
2021/06/26 04:30:13;;;;;;;22.10;16.53;;;16.90;99.90;;;;;;5100486;28;20409;-84
2021/06/26 04:32:40;;;;;;;30.97;18.37;;;16.80;99.90;;;;;;5101492;28;20400;-84
2021/06/26 04:35:09;;;;;;;26.87;18.90;;;17.00;99.90;;;;;;5118561;28;20391;-84
2021/06/26 04:37:35;;;;;;;31.20;18.77;;;17.30;99.90;;;;;;5118833;28;20408;-82
2021/06/26 04:40:02;;;;;;;23.73;17.13;;;17.30;99.90;;;;;;5118831;28;20401;-82
2021/06/26 04:42:28;;;;;;;25.13;15.80;;;17.30;99.90;;;;;;5109397;28;20538;-84
2021/06/26 04:44:54;;;;;;;21.70;15.57;;;17.00;99.90;;;;;;5099958;28;20411;-84
2021/06/26 04:47:20;;;;;;;28.77;16.13;;;17.20;99.90;;;;;;5099312;28;20668;-83
2021/06/26 04:49:46;;;;;;;24.03;17.20;;;17.40;99.90;;;;;;5099337;28;20487;-84
2021/06/26 04:52:12;;;;;;;29.63;17.00;;;17.50;99.90;;;;;;5097359;28;20641;-84
2021/06/26 04:54:37;;;;;;;21.67;16.93;;;17.60;99.90;;;;;;5098450;28;20392;-84
2021/06/26 04:57:04;;;;;;;25.77;17.40;;;17.50;99.90;;;;;;5098177;28;20207;-84
2021/06/26 04:59:30;;;;;;;19.90;14.93;;;17.60;99.90;;;;;;5098061;28;20163;-83
2021/06/26 05:01:56;;;;;;;28.17;17.23;;;17.60;99.90;;;;;;5098886;28;20393;-84
2021/06/26 05:04:22;;;;;;;30.57;18.60;;;17.60;99.90;;;;;;5098495;28;20163;-84
2021/06/26 05:06:48;;;;;;;29.80;17.50;;;17.70;99.90;;;;;;5096858;28;20170;-84
2021/06/26 05:09:14;;;;;;;28.57;17.27;;;17.70;99.90;;;;;;5098127;28;20509;-83
2021/06/26 05:11:39;;;;;;;25.80;15.70;;;17.80;99.90;;;;;;5098780;28;20392;-83
2021/06/26 05:14:05;;;;;;;31.60;21.70;;;17.70;99.90;;;;;;5098530;28;20173;-84
2021/06/26 05:16:31;;;;;;;28.17;17.87;;;17.20;99.90;;;;;;5096607;28;20393;-84
2021/06/26 05:18:57;;;;;;;26.00;16.57;;;16.70;99.90;;;;;;5079349;28;20159;-84
2021/06/26 05:21:23;;;;;;;27.50;18.87;;;16.60;99.90;;;;;;5097993;28;20216;-84
2021/06/26 05:23:49;;;;;;;24.67;18.60;;;16.60;99.90;;;;;;5096509;28;20163;-84
2021/06/26 05:26:15;;;;;;;23.30;17.27;;;16.90;99.90;;;;;;5097607;28;20400;-83
2021/06/26 05:28:41;;;;;;;29.13;18.63;;;17.20;99.90;;;;;;5096057;28;20497;-82
2021/06/26 05:31:07;;;;;;;24.73;17.30;;;17.30;99.90;;;;;;5098390;28;20166;-82
2021/06/26 05:33:33;;;;;;;28.87;19.90;;;17.10;99.90;;;;;;5097586;28;20158;-83
2021/06/26 05:35:59;;;;;;;27.43;17.00;;;17.20;99.90;;;;;;5098044;28;20647;-84
2021/06/26 05:38:25;;;;;;;28.93;18.47;;;17.10;99.90;;;;;;5096656;28;20530;-84
2021/06/26 05:40:51;;;;;;;26.53;17.70;;;16.80;99.90;;;;;;5097729;28;20474;-83
2021/06/26 05:43:17;;;;;;;25.13;15.60;;;17.00;99.90;;;;;;5080384;28;20399;-84
2021/06/26 05:45:42;;;;;;;27.70;18.77;;;17.40;99.90;;;;;;5097456;28;20404;-84
2021/06/26 05:48:08;;;;;;;23.80;17.10;;;17.60;99.90;;;;;;5097965;28;20198;-84
2021/06/26 05:50:35;;;;;;;19.60;15.43;;;17.60;99.90;;;;;;5098246;28;20192;-84
2021/06/26 05:53:01;;;;;;;22.50;16.10;;;17.80;99.90;;;;;;5111806;28;20414;-82
2021/06/26 05:55:27;;;;;;;23.53;16.37;;;17.90;99.90;;;;;;5109652;28;20393;-84
2021/06/26 05:57:53;;;;;;;33.37;17.50;;;18.00;99.90;;;;;;5098498;28;20392;-84
2021/06/26 06:00:21;;;;;;;22.67;17.27;;;18.10;99.90;;;;;;5098314;28;20389;-83
2021/06/26 06:02:48;;;;;;;23.10;15.93;;;18.20;99.90;;;;;;5098587;28;20837;-85
2021/06/26 06:05:14;;;;;;;22.67;16.43;;;18.30;99.90;;;;;;5099576;28;20399;-85
2021/06/26 06:07:43;;;;;;;24.07;17.80;;;18.10;99.90;;;;;;5080817;28;20751;-85
2021/06/26 06:10:11;;;;;;;20.17;16.27;;;17.50;99.90;;;;;;5099818;28;20444;-85
2021/06/26 06:12:38;;;;;;;21.73;16.80;;;17.30;99.90;;;;;;5100412;28;20393;-84
2021/06/26 06:15:06;;;;;;;20.97;17.13;;;17.40;99.90;;;;;;5105707;28;20393;-85
2021/06/26 06:17:32;;;;;;;23.40;15.87;;;17.10;99.90;;;;;;5105754;28;20404;-84
2021/06/26 06:19:59;;;;;;;20.97;17.00;;;17.30;99.90;;;;;;5103963;28;20964;-85
2021/06/26 06:22:24;;;;;;;22.00;17.10;;;17.00;99.90;;;;;;5098798;28;20173;-84
2021/06/26 06:24:51;;;;;;;20.57;16.00;;;17.10;99.90;;;;;;5098694;28;20472;-85
2021/06/26 06:27:17;;;;;;;21.97;17.00;;;17.20;99.90;;;;;;5098473;28;20162;-85
2021/06/26 06:29:43;;;;;;;25.27;17.47;;;17.10;99.90;;;;;;5098441;28;20889;-85
2021/06/26 06:32:09;;;;;;;23.90;17.27;;;17.40;99.90;;;;;;5098173;28;20479;-85
2021/06/26 06:34:35;;;;;;;24.13;17.67;;;17.60;99.90;;;;;;5098169;28;20429;-85
2021/06/26 06:37:01;;;;;;;23.23;17.20;;;17.80;99.90;;;;;;5097535;28;20222;-85
2021/06/26 06:39:27;;;;;;;19.43;17.00;;;17.50;99.90;;;;;;5098359;28;20163;-85
2021/06/26 06:41:53;;;;;;;20.67;17.00;;;17.70;99.90;;;;;;5097499;28;20316;-85
2021/06/26 06:44:19;;;;;;;23.13;17.63;;;17.80;99.90;;;;;;5098268;28;20167;-85
2021/06/26 06:46:45;;;;;;;22.90;16.60;;;17.80;99.90;;;;;;5097333;28;20416;-85
2021/06/26 06:49:11;;;;;;;20.33;15.57;;;18.10;99.90;;;;;;5097245;28;20447;-84
2021/06/26 06:51:37;;;;;;;20.93;17.50;;;18.40;99.90;;;;;;5097622;28;20403;-85
2021/06/26 06:54:04;;;;;;;23.50;17.20;;;18.30;99.90;;;;;;5097983;28;20208;-84
2021/06/26 06:56:30;;;;;;;27.90;17.17;;;18.50;99.90;;;;;;5096534;28;20584;-84
2021/06/26 06:58:56;;;;;;;25.90;15.70;;;18.60;99.90;;;;;;5098570;28;20403;-85
2021/06/26 07:01:23;;;;;;;18.00;14.97;;;18.70;99.90;;;;;;5097719;28;20166;-85
2021/06/26 07:03:49;;;;;;;17.53;15.67;;;18.60;99.90;;;;;;5100458;28;20266;-85
2021/06/26 07:06:15;;;;;;;22.63;16.50;;;18.60;99.90;;;;;;5101595;28;20435;-84
2021/06/26 07:08:41;;;;;;;20.83;15.60;;;18.70;99.90;;;;;;5101528;28;20202;-85
2021/06/26 07:11:06;;;;;;;21.80;16.53;;;18.60;99.90;;;;;;5101922;28;20159;-85
2021/06/26 07:13:32;;;;;;;18.73;14.97;;;18.60;99.90;;;;;;5101997;28;20241;-85
2021/06/26 07:15:58;;;;;;;19.90;15.20;;;18.80;99.90;;;;;;5100496;28;20170;-85
2021/06/26 07:18:25;;;;;;;22.93;17.07;;;18.30;99.90;;;;;;5100187;28;20167;-85
2021/06/26 07:20:51;;;;;;;18.27;15.57;;;18.60;99.90;;;;;;5101649;28;20163;-85
2021/06/26 07:23:16;;;;;;;21.60;16.40;;;18.20;99.90;;;;;;5101631;28;20907;-84
2021/06/26 07:25:42;;;;;;;18.83;14.37;;;18.60;99.90;;;;;;5101793;28;20586;-85
2021/06/26 07:28:08;;;;;;;20.50;16.03;;;18.90;99.90;;;;;;5101924;28;20171;-85
2021/06/26 07:30:34;;;;;;;18.80;16.60;;;19.10;99.90;;;;;;5108968;28;20212;-84
2021/06/26 07:33:00;;;;;;;25.67;18.50;;;19.20;99.90;;;;;;5106382;28;20159;-85
2021/06/26 07:35:25;;;;;;;24.50;16.70;;;19.40;99.90;;;;;;5106031;28;20214;-85
2021/06/26 07:37:51;;;;;;;19.13;16.50;;;18.80;99.90;;;;;;5115697;28;20154;-84
2021/06/26 07:40:17;;;;;;;21.00;16.10;;;18.60;99.90;;;;;;5115947;28;20209;-83
2021/06/26 07:42:44;;;;;;;28.20;21.97;;;18.70;99.90;;;;;;5113503;28;20233;-85
2021/06/26 07:45:10;;;;;;;19.00;16.80;;;18.40;99.90;;;;;;5104244;28;20393;-85
2021/06/26 07:47:36;;;;;;;18.27;16.27;;;18.00;99.90;;;;;;5104508;28;20834;-85
2021/06/26 07:50:04;;;;;;;22.97;17.03;;;18.50;99.90;;;;;;5106580;28;20544;-85
2021/06/26 07:52:30;;;;;;;20.20;16.80;;;19.10;99.90;;;;;;5101765;28;20397;-84
2021/06/26 07:54:56;;;;;;;23.70;18.47;;;19.50;99.90;;;;;;5100276;28;20397;-84
2021/06/26 07:57:22;;;;;;;21.23;15.70;;;19.90;99.90;;;;;;5100452;28;20208;-84
2021/06/26 07:59:47;;;;;;;20.33;17.20;;;20.20;99.90;;;;;;5099519;28;20151;-83
2021/06/26 08:02:13;;;;;;;30.33;20.50;;;20.50;99.90;;;;;;5098761;28;20189;-85
2021/06/26 08:04:39;;;;;;;22.47;16.87;;;20.60;99.90;;;;;;5100137;28;20162;-85
2021/06/26 08:07:05;;;;;;;19.70;16.03;;;20.80;99.90;;;;;;5101042;28;20190;-85
2021/06/26 08:09:30;;;;;;;20.57;15.60;;;21.00;99.90;;;;;;5100660;28;20206;-84
2021/06/26 08:11:56;;;;;;;18.60;15.87;;;21.00;99.90;;;;;;5081652;28;20174;-84
2021/06/26 08:14:22;;;;;;;19.80;16.50;;;21.00;99.90;;;;;;5099562;28;20170;-84
2021/06/26 08:16:48;;;;;;;20.33;16.23;;;21.10;99.90;;;;;;5098117;28;20155;-85
2021/06/26 08:19:16;;;;;;;19.20;16.37;;;21.20;99.90;;;;;;5100960;28;20196;-85
2021/06/26 08:21:43;;;;;;;18.93;16.77;;;21.30;99.90;;;;;;5099918;28;20163;-85
2021/06/26 08:24:09;;;;;;;22.70;17.40;;;20.90;99.90;;;;;;5098145;28;20408;-83
2021/06/26 08:26:34;;;;;;;20.27;17.13;;;21.00;99.90;;;;;;5099589;28;20408;-85
2021/06/26 08:29:00;;;;;;;19.67;17.20;;;21.20;99.90;;;;;;5098622;28;20197;-85
2021/06/26 08:31:26;;;;;;;24.13;16.40;;;20.40;99.90;;;;;;5099694;28;20208;-85
2021/06/26 08:33:52;;;;;;;20.70;16.50;;;20.50;99.90;;;;;;5081805;28;20782;-85
2021/06/26 08:36:18;;;;;;;22.47;16.70;;;21.00;99.90;;;;;;5099730;28;20266;-85
2021/06/26 08:38:44;;;;;;;22.03;18.27;;;21.20;99.90;;;;;;5099814;28;20610;-85
2021/06/26 08:41:11;;;;;;;21.30;16.00;;;21.00;99.90;;;;;;5098618;28;20309;-84
2021/06/26 08:43:37;;;;;;;20.53;17.03;;;20.30;99.90;;;;;;5099528;28;20166;-85
2021/06/26 08:46:03;;;;;;;23.00;17.40;;;20.70;99.90;;;;;;5063718;28;20448;-84
2021/06/26 08:48:29;;;;;;;18.43;15.73;;;20.10;99.90;;;;;;5097915;28;20531;-85
2021/06/26 08:50:56;;;;;;;19.83;17.43;;;20.20;99.90;;;;;;5046748;28;20412;-84
2021/06/26 08:53:22;;;;;;;20.27;16.23;;;20.40;99.90;;;;;;5079533;28;20400;-84
2021/06/26 08:55:52;;;;;;;24.10;17.67;;;20.50;99.90;;;;;;5079763;28;20622;-84
2021/06/26 08:58:24;;;;;;;18.67;16.47;;;21.00;99.90;;;;;;5097378;28;20408;-85
2021/06/26 09:00:53;;;;;;;21.97;14.90;;;21.40;99.90;;;;;;5000794;28;20413;-85
2021/06/26 09:03:23;;;;;;;19.67;16.67;;;21.70;99.90;;;;;;4962512;28;20415;-84
2021/06/26 09:05:49;;;;;;;21.37;16.27;;;21.90;99.90;;;;;;4978078;28;20421;-85
2021/06/26 09:08:22;;;;;;;26.00;16.70;;;22.00;99.90;;;;;;4963927;28;20498;-85
2021/06/26 09:10:51;;;;;;;19.87;16.87;;;21.70;99.90;;;;;;4979737;28;20449;-83
2021/06/26 09:13:23;;;;;;;16.17;13.63;;;21.70;99.90;;;;;;4978267;28;20445;-85
2021/06/26 09:16:05;;;;;;;17.97;15.20;;;22.00;99.90;;;;;;4978160;28;20479;-84
2021/06/26 09:18:40;;;;;;;18.40;15.60;;;22.30;99.90;;;;;;4997764;28;20417;-84
2021/06/26 09:21:19;;;;;;;16.83;13.60;;;22.60;99.90;;;;;;4964560;28;20428;-84
2021/06/26 09:23:57;;;;;;;15.73;13.20;;;22.40;99.90;;;;;;4997303;28;20401;-83
2021/06/26 09:26:23;;;;;;;15.60;13.87;;;22.70;99.90;;;;;;4992120;28;20421;-85
2021/06/26 09:28:49;;;;;;;18.07;16.20;;;22.50;99.90;;;;;;5038471;28;20764;-85
2021/06/26 09:31:18;;;;;;;18.87;14.43;;;22.60;99.90;;;;;;5051336;28;20258;-83
2021/06/26 09:33:55;;;;;;;15.90;14.17;;;22.80;99.90;;;;;;5078701;28;20186;-85
2021/06/26 09:36:25;;;;;;;18.13;16.10;;;22.20;99.90;;;;;;5098853;28;20392;-84
2021/06/26 09:38:59;;;;;;;18.07;15.50;;;22.20;99.90;;;;;;5097698;28;20433;-85
2021/06/26 09:41:26;;;;;;;15.40;13.50;;;22.30;99.90;;;;;;5097204;28;20456;-85
2021/06/26 09:43:52;;;;;;;14.33;12.83;;;22.00;99.90;;;;;;5098896;28;20393;-85
2021/06/26 09:46:19;;;;;;;15.60;13.90;;;22.00;99.90;;;;;;5099133;28;20403;-85
2021/06/26 09:48:53;;;;;;;17.57;15.23;;;22.30;99.90;;;;;;5096884;28;20195;-86
2021/06/26 09:51:23;;;;;;;14.40;11.93;;;22.60;99.90;;;;;;5080857;28;20385;-87
2021/06/26 09:53:51;;;;;;;13.53;11.23;;;22.30;99.90;;;;;;5098403;28;20392;-86
2021/06/26 09:56:17;;;;;;;13.23;11.80;;;22.40;99.90;;;;;;5097703;28;20403;-86
2021/06/26 09:59:01;;;;;;;14.73;13.33;;;23.00;99.90;;;;;;5096493;28;20831;-85
2021/06/26 10:01:30;;;;;;;14.33;10.63;;;23.10;99.90;;;;;;5098467;28;20166;-86
2021/06/26 10:03:56;;;;;;;13.97;12.00;;;23.30;99.90;;;;;;5097308;28;20393;-85
2021/06/26 10:06:23;;;;;;;14.37;12.97;;;23.80;99.90;;;;;;5098291;28;20412;-85
2021/06/26 10:08:49;;;;;;;14.77;12.90;;;24.00;99.90;;;;;;5097924;28;20535;-84
2021/06/26 10:11:15;;;;;;;13.43;12.03;;;24.00;99.90;;;;;;5080434;28;20782;-86
2021/06/26 10:13:42;;;;;;;13.07;11.77;;;24.30;99.90;;;;;;5099375;28;20243;-85
2021/06/26 10:16:09;;;;;;;12.37;11.10;;;24.40;99.90;;;;;;5097757;28;20850;-85
2021/06/26 10:18:35;;;;;;;11.60;10.40;;;24.40;99.90;;;;;;5098081;28;20456;-85
2021/06/26 10:21:04;;;;;;;14.33;12.17;;;24.60;99.90;;;;;;5098738;28;20537;-87
2021/06/26 10:23:33;;;;;;;11.90;10.53;;;24.20;99.90;;;;;;5098315;28;20732;-86
2021/06/26 10:26:02;;;;;;;12.33;11.00;;;23.60;99.90;;;;;;5098908;28;20400;-86
2021/06/26 10:28:28;;;;;;;11.73;10.60;;;23.10;99.90;;;;;;5096768;28;20439;-87
2021/06/26 10:31:07;;;;;;;12.30;11.00;;;23.90;99.90;;;;;;5100016;28;20393;-86
2021/06/26 10:33:36;;;;;;;14.07;10.37;;;24.40;99.90;;;;;;5082156;28;20206;-84
2021/06/26 10:36:02;;;;;;;10.50;9.37;;;24.80;99.90;;;;;;5082756;28;20748;-86
2021/06/26 10:38:41;;;;;;;12.03;10.80;;;24.90;99.90;;;;;;5117525;28;20491;-85
2021/06/26 10:41:17;;;;;;;11.53;10.40;;;24.40;99.90;;;;;;5099897;28;20490;-85
2021/06/26 10:43:57;;;;;;;10.87;9.87;;;24.70;99.90;;;;;;5100614;28;20492;-86
2021/06/26 10:46:23;;;;;;;15.20;9.87;;;24.60;99.90;;;;;;5116584;28;20400;-85
2021/06/26 10:49:04;;;;;;;10.17;9.17;;;25.00;99.90;;;;;;5117751;28;20436;-85
2021/06/26 10:51:39;;;;;;;11.40;9.50;;;25.10;99.90;;;;;;5117735;28;20389;-85
2021/06/26 10:54:21;;;;;;;9.80;8.47;;;25.40;99.90;;;;;;5101465;28;20384;-83
2021/06/26 10:56:48;;;;;;;9.97;8.93;;;25.60;99.90;;;;;;5100696;28;20729;-86
2021/06/26 10:59:19;;;;;;;12.03;8.57;;;25.60;99.90;;;;;;5117663;28;20415;-85
2021/06/26 11:01:57;;;;;;;9.50;8.60;;;25.00;99.90;;;;;;5102446;28;20388;-84
2021/06/26 11:04:24;;;;;;;9.80;8.70;;;24.10;99.90;;;;;;5101591;28;20741;-86
2021/06/26 11:07:01;;;;;;;8.60;7.53;;;24.20;99.90;;;;;;5117952;28;20787;-85
2021/06/26 11:09:35;;;;;;;11.33;8.77;;;25.00;99.90;;;;;;5115833;28;20452;-85
2021/06/26 11:12:11;;;;;;;8.90;8.07;;;24.90;99.90;;;;;;5100939;28;20397;-86
2021/06/26 11:14:48;;;;;;;10.80;9.60;;;25.50;99.90;;;;;;5102180;28;20392;-85
2021/06/26 11:17:14;;;;;;;7.20;6.50;;;25.20;99.90;;;;;;5119690;28;20476;-86
2021/06/26 11:19:59;;;;;;;8.83;8.03;;;24.80;99.90;;;;;;5109847;28;20401;-85
2021/06/26 11:22:25;;;;;;;10.37;8.60;;;25.00;99.90;;;;;;5100091;28;20182;-85
2021/06/26 11:24:51;;;;;;;8.70;7.90;;;24.60;99.90;;;;;;5099333;28;20408;-85
2021/06/26 11:27:20;;;;;;;8.93;8.03;;;25.50;99.90;;;;;;5082776;28;20267;-85
2021/06/26 11:29:48;;;;;;;8.60;7.80;;;25.70;99.90;;;;;;5065019;28;20186;-85
2021/06/26 11:32:35;;;;;;;10.40;9.50;;;25.50;99.90;;;;;;5082638;28;20810;-85
2021/06/26 11:35:07;;;;;;;10.60;8.00;;;25.30;99.90;;;;;;5042169;28;20406;-86
2021/06/26 11:37:35;;;;;;;9.57;8.57;;;25.30;99.90;;;;;;5059249;28;20493;-85
2021/06/26 11:40:16;;;;;;;9.50;8.60;;;25.20;99.90;;;;;;5058404;28;20438;-85
2021/06/26 11:42:51;;;;;;;9.67;8.77;;;25.10;99.90;;;;;;5057680;28;20488;-85
2021/06/26 11:45:21;;;;;;;7.93;7.23;;;24.20;99.90;;;;;;5042329;28;20425;-84
2021/06/26 11:47:48;;;;;;;9.53;8.73;;;24.80;99.90;;;;;;5057794;28;20592;-85
2021/06/26 11:50:17;;;;;;;8.80;8.00;;;25.40;99.90;;;;;;5041832;28;20466;-85
2021/06/26 11:52:44;;;;;;;9.77;8.70;;;25.20;99.90;;;;;;5041543;28;20413;-85
2021/06/26 11:55:10;;;;;;;9.07;8.23;;;24.80;99.90;;;;;;5058570;28;20524;-85
2021/06/26 11:57:39;;;;;;;8.37;7.60;;;25.70;99.90;;;;;;5058732;28;20382;-86
2021/06/26 12:00:07;;;;;;;9.60;8.70;;;25.90;99.90;;;;;;5042217;28;20901;-86
2021/06/26 12:02:53;;;;;;;9.97;8.40;;;26.20;99.90;;;;;;5058125;28;20307;-85
2021/06/26 12:05:20;;;;;;;9.00;7.83;;;26.10;99.90;;;;;;5048043;28;20405;-85
2021/06/26 12:07:46;;;;;;;9.23;8.43;;;26.00;99.90;;;;;;5062216;28;20433;-85
2021/06/26 12:10:12;;;;;;;8.73;7.83;;;26.00;99.90;;;;;;5062474;28;20449;-84
2021/06/26 12:12:40;;;;;;;11.00;8.07;;;25.80;99.90;;;;;;5081305;28;20250;-85
2021/06/26 12:15:11;;;;;;;9.67;8.67;;;25.70;99.90;;;;;;5062139;28;20484;-85
2021/06/26 12:17:37;;;;;;;8.23;7.53;;;25.80;99.90;;;;;;5078601;28;20928;-85
2021/06/26 12:20:06;;;;;;;8.63;7.83;;;25.90;99.90;;;;;;5056543;28;20459;-85
2021/06/26 12:22:41;;;;;;;9.77;8.97;;;26.00;99.90;;;;;;5048734;28;20461;-85
2021/06/26 12:25:11;;;;;;;8.00;7.20;;;25.80;99.90;;;;;;5040451;28;20418;-85
2021/06/26 12:27:37;;;;;;;8.17;7.37;;;25.30;99.90;;;;;;5038880;28;20399;-85
2021/06/26 12:30:08;;;;;;;8.47;7.67;;;25.60;99.90;;;;;;5037755;28;20562;-85
2021/06/26 12:32:37;;;;;;;11.83;8.47;;;25.80;99.90;;;;;;5037543;28;20894;-85